Time;durP1;ratioP1;P1;durP2;ratioP2;P2;SDS_P1;SDS_P2;PMS_P1;PMS_P2;Temp;Humidity;BMP_temperature;BMP_pressure;BME280_temperature;BME280_humidity;BME280_pressure;Samples;Min_cycle;Max_cycle;Signal;HPM_P1;HPM_P2
2021/12/31 00:00:56;;;;;;;;;;;;;;;5.03;88.11;100227.63;4976357;28;20262;-88
2021/12/31 00:03:21;;;;;;;;;;;;;;;5.07;88.27;100229.28;4975689;28;20392;-91
2021/12/31 00:05:47;;;;;;;;;;;;;;;5.04;88.09;100229.34;4974537;28;19933;-90
2021/12/31 00:08:12;;;;;;;;;;;;;;;5.07;87.93;100224.94;4974449;28;20000;-88
2021/12/31 00:10:38;;;;;;;;;;;;;;;5.11;88.11;100236.25;4975442;28;19922;-89
2021/12/31 00:13:03;;;;;;;;;;;;;;;5.09;87.88;100231.03;4973912;28;20381;-88
2021/12/31 00:15:28;;;;;;;;;;;;;;;5.13;87.96;100231.00;4992594;28;19963;-88
2021/12/31 00:17:54;;;;;;;;;;;;;;;5.14;88.06;100233.59;4971001;28;19918;-86
2021/12/31 00:20:23;;;;;;;;;;;;;;;5.14;87.88;100233.59;4974368;28;19928;-88
2021/12/31 00:23:02;;;;;;;;;;;;;;;5.18;87.94;100232.66;4974965;28;20352;-90
2021/12/31 00:25:28;;;;;;;;;;;;;;;5.16;87.74;100226.56;4974894;28;19978;-87
2021/12/31 00:27:54;;;;;;;;;;;;;;;5.25;87.82;100218.56;4974507;28;19925;-91
2021/12/31 00:30:19;;;;;;;;;;;;;;;5.24;87.67;100214.16;4991076;28;19922;-87
2021/12/31 00:32:44;;;;;;;;;;;;;;;5.28;87.71;100218.50;4991835;28;19926;-91
2021/12/31 00:35:10;;;;;;;;;;;;;;;5.28;87.82;100218.50;4975057;28;19925;-89
2021/12/31 00:37:36;;;;;;;;;;;;;;;5.33;87.82;100215.81;4975004;28;19929;-90
2021/12/31 00:40:03;;;;;;;;;;;;;;;5.34;87.83;100212.28;4990224;28;19929;-88
2021/12/31 00:42:28;;;;;;;;;;;;;;;5.38;87.77;100199.97;4974956;28;19918;-86
2021/12/31 00:44:54;;;;;;;;;;;;;;;5.39;87.73;100204.31;4973466;28;20340;-89
2021/12/31 00:47:19;;;;;;;;;;;;;;;5.41;87.80;100199.94;4991154;28;19918;-89
2021/12/31 00:49:45;;;;;;;;;;;;;;;5.40;87.82;100195.56;4974877;28;19922;-88
2021/12/31 00:52:11;;;;;;;;;;;;;;;5.44;88.11;100191.97;4974971;28;19925;-86
2021/12/31 00:54:38;;;;;;;;;;;;;;;5.45;88.74;100196.34;4991374;28;19926;-87
2021/12/31 00:57:04;;;;;;;;;;;;;;;5.44;89.58;100195.50;4968935;28;19922;-89
2021/12/31 00:59:31;;;;;;;;;;;;;;;5.42;90.30;100192.00;4973211;28;19917;-90
2021/12/31 01:01:56;;;;;;;;;;;;;;;5.37;91.12;100187.72;4974132;28;19936;-89
2021/12/31 01:04:22;;;;;;;;;;;;;;;5.35;91.75;100202.66;4973543;28;19922;-90
2021/12/31 01:06:47;;;;;;;;;;;;;;;5.32;92.21;100194.81;4972965;28;19945;-88
2021/12/31 01:09:13;;;;;;;;;;;;;;;5.29;92.75;100195.72;4974118;28;19928;-91
2021/12/31 04:16:43;;;;;;;;;;;;;;;3.73;95.96;100163.41;4997387;28;19980;-90
2021/12/31 04:19:09;;;;;;;;;;;;;;;3.64;95.49;100166.13;4985552;28;19933;-91
2021/12/31 04:21:34;;;;;;;;;;;;;;;3.55;95.42;100160.97;4985385;28;19964;-89
2021/12/31 04:24:13;;;;;;;;;;;;;;;3.51;95.09;100151.38;5002263;28;19924;-87
2021/12/31 04:26:38;;;;;;;;;;;;;;;3.34;95.08;100147.16;4983807;28;19918;-88
2021/12/31 04:29:04;;;;;;;;;;;;;;;3.27;95.32;100145.44;5001482;28;19925;-86
2021/12/31 04:31:29;;;;;;;;;;;;;;;3.25;95.13;100148.06;5002686;28;20032;-86
2021/12/31 04:33:54;;;;;;;;;;;;;;;3.11;94.87;100149.91;4984983;28;19940;-87
2021/12/31 04:36:20;;;;;;;;;;;;;;;3.08;94.93;100150.81;4985252;28;19917;-84
2021/12/31 04:38:45;;;;;;;;;;;;;;;2.95;95.02;100149.13;5002640;28;19918;-89
2021/12/31 04:41:10;;;;;;;;;;;;;;;2.89;94.90;100152.69;4984465;28;19985;-85
2021/12/31 04:43:36;;;;;;;;;;;;;;;2.80;95.02;100147.50;4983552;28;20345;-84
2021/12/31 04:46:01;;;;;;;;;;;;;;;2.76;94.86;100157.97;4985248;28;19999;-88
2021/12/31 04:48:26;;;;;;;;;;;;;;;2.71;94.60;100151.03;5002460;28;19925;-84
2021/12/31 04:50:51;;;;;;;;;;;;;;;2.62;94.54;100139.75;5002562;28;20269;-87
2021/12/31 04:53:19;;;;;;;;;;;;;;;2.70;95.01;100128.34;5001973;28;19971;-89
2021/12/31 04:55:55;;;;;;;;;;;;;;;2.74;95.30;100134.44;4985069;28;20349;-93
2021/12/31 04:58:20;;;;;;;;;;;;;;;2.63;95.45;100131.00;4950022;28;20305;-89
2021/12/31 05:00:50;;;;;;;;;;;;;;;2.55;95.23;100136.25;4951658;29;19922;-93
2021/12/31 05:03:16;;;;;;;;;;;;;;;2.53;94.96;100132.78;4935577;28;20326;-90
2021/12/31 05:05:41;;;;;;;;;;;;;;;2.58;95.84;100138.88;4951692;29;19914;-91
2021/12/31 05:08:06;;;;;;;;;;;;;;;2.68;98.03;100132.72;4935437;28;20326;-89
2021/12/31 05:10:33;;;;;;;;;;;;;;;2.76;99.64;100142.28;4935546;29;19964;-91
2021/12/31 05:13:02;;;;;;;;;;;;;;;2.69;99.72;100151.91;4950052;28;20049;-88
2021/12/31 05:15:32;;;;;;;;;;;;;;;2.63;99.74;100147.59;4935127;28;19934;-90
2021/12/31 05:17:57;;;;;;;;;;;;;;;2.56;99.48;100150.25;4951281;28;20400;-89
2021/12/31 05:20:22;;;;;;;;;;;;;;;2.45;99.09;100143.28;4935100;28;20006;-90
2021/12/31 05:22:48;;;;;;;;;;;;;;;2.41;99.13;100148.53;4957875;28;19928;-88
2021/12/31 05:25:13;;;;;;;;;;;;;;;2.34;98.70;100145.94;4984721;28;19924;-91
2021/12/31 05:27:38;;;;;;;;;;;;;;;2.26;98.60;100146.84;4983366;28;20369;-89
2021/12/31 05:30:05;;;;;;;;;;;;;;;2.24;98.28;100152.09;5001875;28;19922;-90
2021/12/31 05:32:30;;;;;;;;;;;;;;;2.19;98.09;100153.84;4983604;28;20000;-90
2021/12/31 05:34:56;;;;;;;;;;;;;;;2.13;97.80;100159.09;4984761;28;20332;-90
2021/12/31 05:37:21;;;;;;;;;;;;;;;2.10;97.66;100154.72;4984352;28;19941;-88
2021/12/31 05:39:46;;;;;;;;;;;;;;;1.97;97.36;100166.94;4985038;28;19991;-90
2021/12/31 05:42:12;;;;;;;;;;;;;;;1.98;97.05;100160.00;4984355;28;20369;-90
2021/12/31 05:44:38;;;;;;;;;;;;;;;1.86;96.86;100162.63;4982774;28;19928;-91
2021/12/31 05:47:03;;;;;;;;;;;;;;;1.87;96.46;100165.25;4984447;28;19965;-91
2021/12/31 05:49:29;;;;;;;;;;;;;;;1.79;95.73;100157.41;4984280;28;19924;-91
2021/12/31 05:51:54;;;;;;;;;;;;;;;1.78;95.47;100163.50;4984390;28;19922;-89
